MDLR/LRM METAR and TAF weather

Enter ICAO airport designator
Station Type Date Time Source
MDLR METAR 2021/03/01 03:00 UTC NOAA

MDLR 010300Z 06004KT 9999 FEW016 22/22 Q1017


Station Type Date Time Source
MDLR Decoded METAR 2021/03/01 03:00 UTC NOAA

La Romana International Airport, Dominican Republic (MDLR) 18-25N 068-57W
Feb 28, 2021 - 10:00 PM EST / 2021.03.01 0300 UTC
Wind: from the ENE (060 degrees) at 5 MPH (4 KT):0
Visibility: greater than 7 mile(s):0
Sky conditions: mostly clear
Temperature: 71 F (22 C)
Dew Point: 71 F (22 C)
Relative Humidity: 100%
Pressure (altimeter): 30.03 in. Hg (1017 hPa)
ob: MDLR 010300Z 06004KT 9999 FEW016 22/22 Q1017
cycle: 3

Station Type Date Time Source
MDLR TAF 2021/02/28 18:17 UTC NOAA

TAF MDLR 281600Z 2818/0118 09015KT 9999 SCT022

Example: see airport list